Clifton, Arizona
Current Conditions -  °F | °C
As of 1:51 AM on Tuesday 21 Oct 2014 (Local Time) from KSAD Reporting Station
Clear Clear  
Wind Chill: 58°   Ceiling: Unl
Heat Index: 58°   Visibility: 10mi
Dew Point: 51°   Wind: 7mph
Humidity: 78%   Direction: 130°SE
Pressure: 30"   Gusts: NA
Location:  33.05°N, 109.3°W
Report Text: KSAD 210851Z AUTO 13006KT 10SM CLR 14/11 A3000 RMK AO2 SLP122 T01440106 50000
Loading
Personal Weather Stations






























Interactive Weather Map
Tropical Storm Tracking
New forecast layout! Learn more

10-Day Weather Forecast

Advertisements
Track Severe Weather on mobile